Main page
METAR-TAF:

METAR-TAF

Airports :

Chengdu, China

Chengdu Shuangliu International Airport

latitude: 30-40N, longitude: 104-01E, elevation: 508 m

Current weather observation

The report was made 1 hour and 10 minutes ago, at 08:00 UTC
Wind 2 kt from variable directions
Temperature 23°C
Humidity 94%
Pressure 1010 hPa
Visibility: 3000 m
Scattered clouds at a height of 5000 ft
mist

METAR: ZUUU 230800Z VRB01MPS 3000 BR SCT050 23/22 Q1010 NOSIG

Time: 17:10 (09:10 UTC)

Forecast

The report was made 7 hours and 0 minutes ago, at 02:10 UTC
Forecast valid from 23 at 06 UTC to 24 at 06 UTC
Wind 6 kt from the North/Northeast
Visibility: 5000 m
Scattered clouds at a height of 4000 ft
mist

TAF: ZUUU 230210Z 2306/2406 02003MPS 5000 BR SCT040 TX25/2307Z TN21/2323Z

Weather observations and forecasts of more than 4000 airports (METAR and TAF reports).

The available stations are represented by yellow and red dots on the map.

Hover mouse over dot to see the name of the station.

Then click to see weather observations and forecasts.

To change the map : click on the green buttons with a black cross to zoom in, on the green button with a dash to zoom out, or on the green arrows for adjacent maps.


METAR-TAF: